createdAt,value
2023-05-10T00:02:25.705Z,13.20
2023-05-10T00:04:52.268Z,13.23
2023-05-10T00:07:18.889Z,13.18
2023-05-10T00:09:46.315Z,13.17
2023-05-10T00:12:12.677Z,13.12
2023-05-10T00:14:39.075Z,13.10
2023-05-10T00:17:05.560Z,13.05
2023-05-10T00:19:32.011Z,13.06
2023-05-10T00:21:58.395Z,13.02
2023-05-10T00:24:24.933Z,12.99
2023-05-10T00:26:51.365Z,12.92
2023-05-10T00:29:18.037Z,12.93
2023-05-10T00:31:44.457Z,12.90
2023-05-10T00:34:11.120Z,12.90
2023-05-10T00:36:37.703Z,12.89
2023-05-10T00:39:04.568Z,12.75
2023-05-10T00:41:34.263Z,12.74
2023-05-10T00:44:01.607Z,12.70
2023-05-10T00:46:28.042Z,12.67
2023-05-10T00:48:55.107Z,12.63
2023-05-10T00:51:21.643Z,12.60
2023-05-10T00:53:49.394Z,12.62
2023-05-10T00:56:16.833Z,12.57
2023-05-10T00:58:43.743Z,12.63
2023-05-10T01:01:11.725Z,12.56
2023-05-10T01:03:38.437Z,12.47
2023-05-10T01:06:05.151Z,12.52
2023-05-10T01:08:31.512Z,12.51
2023-05-10T01:10:58.051Z,12.43
2023-05-10T01:13:32.479Z,12.36
2023-05-10T01:15:59.487Z,12.32
2023-05-10T01:18:26.910Z,12.26
2023-05-10T01:21:06.513Z,12.34
2023-05-10T01:23:54.741Z,12.26
2023-05-10T01:26:29.321Z,12.18
2023-05-10T01:29:06.926Z,12.25
2023-05-10T01:31:52.058Z,12.17
2023-05-10T01:34:24.630Z,12.18
2023-05-10T01:37:04.826Z,12.13
2023-05-10T01:39:37.378Z,12.05
2023-05-10T01:42:15.124Z,12.00
2023-05-10T01:44:53.376Z,11.98
2023-05-10T01:48:07.545Z,11.96
2023-05-10T01:50:36.471Z,12.01
2023-05-10T01:53:06.783Z,11.92
2023-05-10T01:55:37.933Z,11.89
2023-05-10T01:58:10.996Z,11.84
2023-05-10T02:00:40.802Z,11.76
2023-05-10T02:03:09.624Z,11.79
2023-05-10T02:05:37.476Z,11.72
2023-05-10T02:08:06.974Z,11.67
2023-05-10T02:10:35.568Z,11.70
2023-05-10T02:13:03.297Z,11.68
2023-05-10T02:15:30.773Z,11.60
2023-05-10T02:17:59.279Z,11.60
2023-05-10T02:20:27.309Z,11.59
2023-05-10T02:22:56.777Z,11.57
2023-05-10T02:25:24.447Z,11.58
2023-05-10T02:27:52.278Z,11.62
2023-05-10T02:30:20.423Z,11.52
2023-05-10T02:32:49.968Z,11.43
2023-05-10T02:35:20.503Z,11.43
2023-05-10T02:37:48.698Z,11.41
2023-05-10T02:40:18.949Z,11.37
2023-05-10T02:42:49.763Z,11.36
2023-05-10T02:45:20.500Z,11.24
2023-05-10T02:47:47.073Z,11.23
2023-05-10T02:50:13.939Z,11.24
2023-05-10T02:52:45.306Z,11.17
2023-05-10T02:55:15.014Z,11.18
2023-05-10T02:57:52.044Z,11.13
2023-05-10T03:00:18.707Z,11.15
2023-05-10T03:02:45.207Z,11.08
2023-05-10T03:05:11.593Z,11.03
2023-05-10T03:07:38.431Z,11.03
2023-05-10T03:10:06.232Z,10.95
2023-05-10T03:13:03.498Z,10.96
2023-05-10T03:15:45.950Z,10.93
2023-05-10T03:18:22.257Z,10.86
2023-05-10T03:20:52.149Z,10.92
2023-05-10T03:23:35.110Z,10.84
2023-05-10T03:26:02.585Z,10.83
2023-05-10T03:28:29.890Z,10.85
2023-05-10T03:30:57.715Z,10.82
2023-05-10T03:33:24.236Z,10.76
2023-05-10T03:35:50.646Z,10.77
2023-05-10T03:38:17.013Z,10.74
2023-05-10T03:40:43.500Z,10.80
2023-05-10T03:43:09.860Z,10.81
2023-05-10T03:45:36.547Z,10.79
2023-05-10T03:48:02.996Z,10.82
2023-05-10T03:50:29.565Z,10.81
2023-05-10T03:52:56.097Z,10.89
2023-05-10T03:55:23.395Z,10.88
2023-05-10T03:57:50.681Z,10.90
2023-05-10T04:00:17.768Z,10.87
2023-05-10T04:02:46.015Z,10.85
2023-05-10T04:05:13.063Z,10.88
2023-05-10T04:07:39.596Z,10.87
2023-05-10T04:10:06.404Z,10.89
2023-05-10T04:12:32.763Z,10.89
2023-05-10T04:14:59.180Z,10.86
2023-05-10T04:17:25.557Z,10.91
2023-05-10T04:19:53.995Z,11.01
2023-05-10T04:22:20.495Z,11.02
2023-05-10T04:24:46.900Z,11.06
2023-05-10T04:27:13.281Z,11.10
2023-05-10T04:29:39.722Z,11.14
2023-05-10T04:32:06.412Z,11.19
2023-05-10T04:34:35.042Z,11.26
2023-05-10T04:37:01.583Z,11.27
2023-05-10T04:39:27.937Z,11.35
2023-05-10T04:41:54.293Z,11.32
2023-05-10T04:44:20.663Z,11.44
2023-05-10T04:46:47.183Z,11.47
2023-05-10T04:49:13.581Z,11.49
2023-05-10T04:51:40.034Z,11.52
2023-05-10T04:54:07.001Z,11.61
2023-05-10T04:56:33.970Z,11.69
2023-05-10T04:59:00.436Z,11.74
2023-05-10T05:01:26.942Z,11.77
2023-05-10T05:03:53.977Z,11.83
2023-05-10T05:06:21.927Z,11.86
2023-05-10T05:08:50.140Z,12.02
2023-05-10T05:11:17.038Z,12.06
2023-05-10T05:13:43.576Z,12.10
2023-05-10T05:16:10.086Z,12.17
2023-05-10T05:18:36.471Z,12.21
2023-05-10T05:21:02.832Z,12.19
2023-05-10T05:23:29.264Z,12.28
2023-05-10T05:25:55.687Z,12.36
2023-05-10T05:28:22.112Z,12.39
2023-05-10T05:30:48.542Z,12.45
2023-05-10T05:33:16.390Z,12.58
2023-05-10T05:35:45.625Z,12.61
2023-05-10T05:38:12.259Z,12.72
2023-05-10T05:40:38.686Z,12.70
2023-05-10T05:43:05.146Z,12.77
2023-05-10T05:45:31.708Z,12.90
2023-05-10T05:47:58.382Z,12.97
2023-05-10T05:50:24.793Z,12.97
2023-05-10T05:52:51.257Z,12.99
2023-05-10T05:55:17.871Z,13.05
2023-05-10T05:57:44.490Z,13.15
2023-05-10T06:00:11.283Z,13.18
2023-05-10T06:02:37.928Z,13.16
2023-05-10T06:05:04.693Z,13.27
2023-05-10T06:07:31.060Z,13.34
2023-05-10T06:09:57.411Z,13.44
2023-05-10T06:12:23.780Z,13.51
2023-05-10T06:14:50.153Z,13.50
2023-05-10T06:17:16.513Z,13.54
2023-05-10T06:19:42.897Z,13.57
2023-05-10T06:22:09.379Z,13.68
2023-05-10T06:24:35.940Z,13.71
2023-05-10T06:27:02.918Z,13.90
2023-05-10T06:29:29.271Z,13.88
2023-05-10T06:31:55.748Z,13.88
2023-05-10T06:34:22.570Z,13.93
2023-05-10T06:36:49.006Z,14.06
2023-05-10T06:39:15.663Z,14.08
2023-05-10T06:41:42.174Z,14.15
2023-05-10T06:44:09.379Z,14.18
2023-05-10T06:46:36.195Z,14.20
2023-05-10T06:49:02.963Z,14.30
2023-05-10T06:51:29.603Z,14.35
2023-05-10T06:53:56.089Z,14.37
2023-05-10T06:56:22.682Z,14.50
2023-05-10T06:58:49.487Z,14.58
2023-05-10T07:01:16.074Z,14.56
2023-05-10T07:03:42.486Z,14.59
2023-05-10T07:06:15.594Z,14.62
2023-05-10T07:08:48.458Z,14.69
2023-05-10T07:11:14.845Z,14.71
2023-05-10T07:13:44.939Z,14.72
2023-05-10T07:16:11.533Z,14.83
2023-05-10T07:18:38.103Z,14.85
2023-05-10T07:21:04.771Z,14.87
2023-05-10T07:23:31.388Z,14.86
2023-05-10T07:25:58.403Z,14.91
2023-05-10T07:28:27.733Z,14.95
2023-05-10T07:30:54.052Z,14.99
2023-05-10T07:33:20.511Z,15.05
2023-05-10T07:35:47.063Z,15.13
2023-05-10T07:38:13.471Z,15.14
2023-05-10T07:40:40.488Z,15.15
2023-05-10T07:43:06.905Z,15.18
2023-05-10T07:45:34.409Z,15.21
2023-05-10T07:48:01.206Z,15.25
2023-05-10T07:50:27.913Z,15.35
2023-05-10T07:52:54.349Z,15.33
2023-05-10T07:55:22.182Z,15.39
2023-05-10T07:57:48.687Z,15.51
2023-05-10T08:00:18.978Z,15.54
2023-05-10T08:02:45.475Z,15.55
2023-05-10T08:05:11.891Z,15.48
2023-05-10T08:07:38.284Z,15.52
2023-05-10T08:10:05.378Z,15.58
2023-05-10T08:12:31.749Z,15.58
2023-05-10T08:14:58.242Z,15.63
2023-05-10T08:17:24.885Z,15.69
2023-05-10T08:19:51.370Z,15.80
2023-05-10T08:22:17.935Z,15.81
2023-05-10T08:24:44.369Z,15.96
2023-05-10T08:27:10.716Z,16.07
2023-05-10T08:29:48.980Z,16.02
2023-05-10T08:32:16.492Z,16.06
2023-05-10T08:34:42.875Z,16.17
2023-05-10T08:37:09.261Z,16.29
2023-05-10T08:39:36.407Z,16.33
2023-05-10T08:42:05.553Z,16.34
2023-05-10T08:44:33.431Z,16.36
2023-05-10T08:47:03.410Z,16.46
2023-05-10T08:49:32.600Z,16.39
2023-05-10T08:52:00.581Z,16.45
2023-05-10T08:54:27.363Z,16.41
2023-05-10T08:56:54.267Z,16.46
2023-05-10T08:59:20.747Z,16.53
2023-05-10T09:01:50.255Z,16.55
2023-05-10T09:04:17.454Z,16.59
2023-05-10T09:06:44.013Z,16.67
2023-05-10T09:09:10.880Z,16.75
2023-05-10T09:11:37.570Z,16.70
2023-05-10T09:14:04.244Z,16.75
2023-05-10T09:16:30.637Z,16.81
2023-05-10T09:18:57.164Z,16.90
2023-05-10T09:21:23.629Z,16.94
2023-05-10T09:23:51.108Z,17.00
2023-05-10T09:26:18.387Z,17.09
2023-05-10T09:28:57.135Z,17.16
2023-05-10T09:31:25.962Z,17.21
2023-05-10T09:33:53.045Z,17.29
2023-05-10T09:36:19.405Z,17.27
2023-05-10T09:38:50.217Z,17.34
2023-05-10T09:41:18.652Z,17.34
2023-05-10T09:43:45.009Z,17.37
2023-05-10T09:46:12.263Z,17.42
2023-05-10T09:48:47.179Z,17.41
2023-05-10T09:51:21.420Z,17.47
2023-05-10T09:53:48.110Z,17.58
2023-05-10T09:56:15.259Z,17.70
2023-05-10T09:58:41.737Z,17.62
2023-05-10T10:01:13.074Z,17.81
2023-05-10T10:03:43.590Z,17.92
2023-05-10T10:06:18.833Z,18.01
2023-05-10T10:08:56.234Z,18.06
2023-05-10T10:11:24.585Z,18.16
2023-05-10T10:13:50.942Z,18.07
2023-05-10T10:16:17.419Z,18.22
2023-05-10T10:18:44.267Z,18.26
2023-05-10T10:21:11.010Z,18.25
2023-05-10T10:23:37.435Z,18.34
2023-05-10T10:26:05.696Z,18.33
2023-05-10T10:29:13.045Z,18.22
2023-05-10T10:31:48.480Z,18.26
2023-05-10T10:34:27.022Z,18.34
2023-05-10T10:36:54.880Z,18.28
2023-05-10T10:39:22.175Z,18.33
2023-05-10T10:41:55.825Z,18.40
2023-05-10T10:44:31.806Z,18.34
2023-05-10T10:47:07.048Z,18.33
2023-05-10T10:49:34.607Z,18.37
2023-05-10T10:52:30.911Z,18.42
2023-05-10T10:55:15.914Z,18.38
2023-05-10T10:57:42.430Z,18.51
2023-05-10T11:00:32.333Z,18.50
2023-05-10T11:03:15.479Z,18.44
2023-05-10T11:05:44.067Z,18.65
2023-05-10T11:08:17.117Z,18.50
2023-05-10T11:10:52.984Z,18.64
2023-05-10T11:13:32.214Z,18.59
2023-05-10T11:15:59.977Z,18.61
2023-05-10T11:18:32.483Z,18.68
2023-05-10T11:21:01.650Z,18.77
2023-05-10T11:23:48.405Z,18.85
2023-05-10T11:26:15.247Z,18.96
2023-05-10T11:28:45.409Z,19.04
2023-05-10T11:31:14.625Z,18.99
2023-05-10T11:33:52.156Z,19.21
2023-05-10T11:36:20.649Z,19.22
2023-05-10T11:38:48.552Z,19.15
2023-05-10T11:41:17.799Z,19.08
2023-05-10T11:43:47.249Z,19.14
2023-05-10T11:46:14.637Z,19.14
2023-05-10T11:48:42.535Z,19.30
2023-05-10T11:51:09.663Z,19.32
2023-05-10T11:53:36.112Z,19.34
2023-05-10T11:56:10.203Z,19.29
2023-05-10T11:58:38.503Z,19.39
2023-05-10T12:01:06.613Z,19.36
2023-05-10T12:03:33.953Z,19.37
2023-05-10T12:06:01.647Z,19.35
2023-05-10T12:08:29.451Z,19.46
2023-05-10T12:11:06.419Z,19.54
2023-05-10T12:13:32.782Z,19.47
2023-05-10T12:15:59.503Z,19.49
2023-05-10T12:18:29.145Z,19.57
2023-05-10T12:21:03.149Z,19.61
2023-05-10T12:23:29.772Z,19.77
2023-05-10T12:26:04.867Z,19.85
2023-05-10T12:28:32.700Z,19.83
2023-05-10T12:31:00.474Z,19.90
2023-05-10T12:33:26.893Z,19.92
2023-05-10T12:35:54.984Z,19.84
2023-05-10T12:38:38.788Z,19.86
2023-05-10T12:41:08.234Z,20.10
2023-05-10T12:43:35.881Z,19.98
2023-05-10T12:46:12.905Z,19.94
2023-05-10T12:48:40.887Z,19.98
2023-05-10T12:51:10.319Z,20.09
2023-05-10T12:53:37.617Z,20.15
2023-05-10T12:56:04.134Z,20.13
2023-05-10T13:01:02.791Z,20.29
2023-05-10T13:03:29.220Z,20.30
2023-05-10T13:05:55.568Z,20.29
2023-05-10T13:08:21.944Z,20.33
2023-05-10T13:10:48.352Z,20.34
2023-05-10T13:13:15.075Z,20.48
2023-05-10T13:15:41.449Z,20.53
2023-05-10T13:18:07.817Z,20.48
2023-05-10T13:20:34.249Z,20.69
2023-05-10T13:23:00.819Z,20.78
2023-05-10T13:25:27.180Z,20.60
2023-05-10T13:27:53.592Z,20.72
2023-05-10T13:30:19.979Z,20.65
2023-05-10T13:32:46.690Z,20.74
2023-05-10T13:35:13.108Z,20.70
2023-05-10T13:37:39.767Z,20.61
2023-05-10T13:40:07.116Z,20.83
2023-05-10T13:42:34.535Z,20.93
2023-05-10T13:45:02.728Z,20.99
2023-05-10T13:47:29.354Z,21.06
2023-05-10T13:49:56.175Z,21.10
2023-05-10T13:52:22.663Z,21.29
2023-05-10T13:54:49.057Z,21.53
2023-05-10T13:57:17.598Z,21.47
2023-05-10T13:59:43.973Z,21.43
2023-05-10T14:02:10.392Z,21.66
2023-05-10T14:04:36.798Z,21.65
2023-05-10T14:07:03.197Z,21.66
2023-05-10T14:09:29.604Z,21.62
2023-05-10T14:11:56.814Z,21.90
2023-05-10T14:14:23.184Z,21.81
2023-05-10T14:16:49.658Z,21.80
2023-05-10T14:19:16.183Z,21.86
2023-05-10T14:21:42.543Z,21.88
2023-05-10T14:24:08.896Z,21.88
2023-05-10T14:26:35.566Z,21.70
2023-05-10T14:29:02.331Z,21.66
2023-05-10T14:31:31.123Z,21.64
2023-05-10T14:33:58.620Z,21.62
2023-05-10T14:36:25.203Z,21.62
2023-05-10T14:38:51.912Z,21.64
2023-05-10T14:41:18.678Z,21.63
2023-05-10T14:43:45.055Z,21.97
2023-05-10T14:46:11.538Z,21.42
2023-05-10T14:48:38.040Z,21.06
2023-05-10T14:51:04.616Z,20.80
2023-05-10T14:53:31.209Z,20.67
2023-05-10T14:55:58.341Z,20.52
2023-05-10T14:58:24.781Z,20.18
2023-05-10T15:00:51.534Z,19.95
2023-05-10T15:03:18.368Z,20.12
2023-05-10T15:05:45.319Z,20.00
2023-05-10T15:08:13.371Z,19.77
2023-05-10T15:10:40.514Z,19.43
2023-05-10T15:13:06.880Z,19.48
2023-05-10T15:15:33.383Z,19.16
2023-05-10T15:17:59.920Z,19.26
2023-05-10T15:20:26.630Z,19.42
2023-05-10T15:22:53.062Z,19.34
2023-05-10T15:25:19.645Z,19.24
2023-05-10T15:27:46.142Z,18.97
2023-05-10T15:30:13.112Z,18.92
2023-05-10T15:32:40.995Z,18.78
2023-05-10T15:35:08.994Z,18.84
2023-05-10T15:37:35.492Z,18.79
2023-05-10T15:40:04.750Z,18.80
2023-05-10T15:42:32.555Z,18.91
2023-05-10T15:44:59.407Z,18.76
2023-05-10T15:47:27.127Z,18.77
2023-05-10T15:49:53.528Z,18.78
2023-05-10T15:52:21.484Z,18.63
2023-05-10T15:54:47.900Z,18.56
2023-05-10T15:57:14.286Z,18.50
2023-05-10T15:59:40.642Z,18.51
2023-05-10T16:02:08.689Z,18.46
2023-05-10T16:04:35.101Z,18.25
2023-05-10T16:07:01.749Z,18.26
2023-05-10T16:09:28.204Z,18.29
2023-05-10T16:11:54.961Z,18.29
2023-05-10T16:14:22.868Z,18.21
2023-05-10T16:16:49.397Z,18.18
2023-05-10T16:19:16.244Z,18.05
2023-05-10T16:21:42.740Z,18.12
2023-05-10T16:24:09.172Z,17.98
2023-05-10T16:26:40.712Z,17.99
2023-05-10T16:29:08.300Z,17.88
2023-05-10T16:31:35.020Z,17.90
2023-05-10T16:34:01.603Z,17.72
2023-05-10T16:36:29.513Z,17.68
2023-05-10T16:38:56.001Z,17.67
2023-05-10T16:41:22.818Z,17.78
2023-05-10T16:43:49.289Z,17.69
2023-05-10T16:46:16.117Z,17.59
2023-05-10T16:48:42.718Z,17.57
2023-05-10T16:51:09.395Z,17.55
2023-05-10T16:53:36.247Z,17.52
2023-05-10T16:56:03.331Z,17.43
2023-05-10T16:58:29.708Z,17.57
2023-05-10T17:00:56.392Z,17.70
2023-05-10T17:03:22.905Z,17.67
2023-05-10T17:05:49.321Z,17.55
2023-05-10T17:08:16.093Z,17.71
2023-05-10T17:10:42.642Z,17.50
2023-05-10T17:13:10.566Z,17.61
2023-05-10T17:15:38.606Z,17.43
2023-05-10T17:18:05.573Z,17.33
2023-05-10T17:20:32.189Z,17.43
2023-05-10T17:22:58.564Z,17.42
2023-05-10T17:25:24.942Z,17.36
2023-05-10T17:27:51.314Z,17.27
2023-05-10T17:30:22.457Z,17.12
2023-05-10T17:32:48.878Z,17.16
2023-05-10T17:35:15.476Z,16.95
2023-05-10T17:37:42.037Z,16.99
2023-05-10T17:40:09.972Z,16.96
2023-05-10T17:42:36.585Z,16.88
2023-05-10T17:45:03.732Z,17.01
2023-05-10T17:47:30.280Z,16.98
2023-05-10T17:49:57.115Z,16.98
2023-05-10T17:52:23.571Z,16.98
2023-05-10T17:54:49.924Z,17.01
2023-05-10T17:57:16.434Z,16.93
2023-05-10T17:59:42.901Z,16.77
2023-05-10T18:02:09.352Z,16.74
2023-05-10T18:04:35.801Z,16.70
2023-05-10T18:07:02.845Z,16.68
2023-05-10T18:09:29.511Z,16.62
2023-05-10T18:11:55.922Z,16.68
2023-05-10T18:14:38.862Z,16.59
2023-05-10T18:17:07.689Z,16.58
2023-05-10T18:19:34.268Z,16.58
2023-05-10T18:22:00.686Z,16.48
2023-05-10T18:24:38.388Z,16.46
2023-05-10T18:27:06.912Z,16.45
2023-05-10T18:29:33.461Z,16.36
2023-05-10T18:31:59.970Z,16.32
2023-05-10T18:34:26.644Z,16.34
2023-05-10T18:36:53.149Z,16.46
2023-05-10T18:39:19.672Z,16.31
2023-05-10T18:41:46.107Z,16.30
2023-05-10T18:44:12.568Z,16.34
2023-05-10T18:46:39.146Z,16.40
2023-05-10T18:49:06.472Z,16.26
2023-05-10T18:51:32.962Z,16.12
2023-05-10T18:53:59.412Z,16.18
2023-05-10T18:56:25.821Z,16.14
2023-05-10T18:58:52.649Z,16.11
2023-05-10T19:01:19.067Z,16.10
2023-05-10T19:03:45.529Z,16.11
2023-05-10T19:06:11.920Z,16.04
2023-05-10T19:08:38.326Z,16.03
2023-05-10T19:11:04.701Z,16.05
2023-05-10T19:13:31.138Z,16.07
2023-05-10T19:16:06.144Z,15.92
2023-05-10T19:18:32.906Z,15.97
2023-05-10T19:21:01.643Z,16.02
2023-05-10T19:23:29.157Z,16.00
2023-05-10T19:25:55.561Z,15.96
2023-05-10T19:28:21.949Z,15.88
2023-05-10T19:30:50.153Z,15.82
2023-05-10T19:33:19.722Z,15.82
2023-05-10T19:35:46.326Z,15.83
2023-05-10T19:38:12.702Z,15.81
2023-05-10T19:40:39.076Z,15.80
2023-05-10T19:43:05.482Z,15.80
2023-05-10T19:45:34.107Z,15.74
2023-05-10T19:48:01.416Z,15.74
2023-05-10T19:50:27.904Z,15.76
2023-05-10T19:52:54.286Z,15.77
2023-05-10T19:55:31.162Z,15.71
2023-05-10T19:58:00.411Z,15.62
2023-05-10T20:00:27.402Z,15.64
2023-05-10T20:02:54.012Z,15.56
2023-05-10T20:05:21.519Z,15.59
2023-05-10T20:07:47.879Z,15.51
2023-05-10T20:10:15.424Z,15.48
2023-05-10T20:12:41.778Z,15.68
2023-05-10T20:15:08.222Z,15.62
2023-05-10T20:17:35.508Z,15.48
2023-05-10T20:20:02.025Z,15.41
2023-05-10T20:22:28.601Z,15.32
2023-05-10T20:24:56.257Z,15.42
2023-05-10T20:27:23.046Z,15.29
2023-05-10T20:29:49.439Z,15.28
2023-05-10T20:32:16.254Z,15.25
2023-05-10T20:34:42.632Z,15.20
2023-05-10T20:37:09.092Z,15.24
2023-05-10T20:39:35.512Z,15.24
2023-05-10T20:42:01.858Z,15.16
2023-05-10T20:44:28.196Z,15.14
2023-05-10T20:46:54.571Z,15.09
2023-05-10T20:49:21.779Z,15.11
2023-05-10T20:51:48.309Z,15.09
2023-05-10T20:54:14.680Z,15.01
2023-05-10T20:56:41.333Z,14.91
2023-05-10T20:59:07.995Z,14.92
2023-05-10T21:01:34.386Z,14.93
2023-05-10T21:04:00.764Z,15.02
2023-05-10T21:06:27.142Z,14.86
2023-05-10T21:08:53.483Z,14.79
2023-05-10T21:11:19.840Z,14.72
2023-05-10T21:13:46.282Z,14.72
2023-05-10T21:16:12.708Z,14.72
2023-05-10T21:18:39.215Z,14.67
2023-05-10T21:21:05.699Z,14.60
2023-05-10T21:23:34.449Z,14.54
2023-05-10T21:26:05.521Z,14.52
2023-05-10T21:28:31.877Z,14.48
2023-05-10T21:30:58.349Z,14.39
2023-05-10T21:33:24.760Z,14.41
2023-05-10T21:35:51.183Z,14.36
2023-05-10T21:38:17.608Z,14.30
2023-05-10T21:40:43.981Z,14.34
2023-05-10T21:43:11.255Z,14.31
2023-05-10T21:45:38.104Z,14.27
2023-05-10T21:48:04.690Z,14.26
2023-05-10T21:50:31.116Z,14.26
2023-05-10T21:52:57.743Z,14.18
2023-05-10T21:55:24.228Z,14.16
2023-05-10T21:57:51.057Z,14.11
2023-05-10T22:00:19.313Z,14.14
2023-05-10T22:02:46.758Z,14.06
2023-05-10T22:05:13.452Z,14.05
2023-05-10T22:07:39.915Z,13.99
2023-05-10T22:10:07.828Z,13.94
2023-05-10T22:12:34.177Z,14.04
2023-05-10T22:15:10.260Z,13.95
2023-05-10T22:17:39.557Z,13.87
2023-05-10T22:20:09.726Z,13.91
2023-05-10T22:22:36.675Z,13.87
2023-05-10T22:25:03.799Z,13.87
2023-05-10T22:27:30.155Z,13.80
2023-05-10T22:29:56.662Z,13.78
2023-05-10T22:32:23.127Z,13.71
2023-05-10T22:34:49.501Z,13.76
2023-05-10T22:37:17.885Z,13.63
2023-05-10T22:39:48.733Z,13.57
2023-05-10T22:42:15.607Z,13.66
2023-05-10T22:44:42.826Z,13.61
2023-05-10T22:47:09.378Z,13.52
2023-05-10T22:49:36.804Z,13.68
2023-05-10T22:52:03.221Z,13.56
2023-05-10T22:54:29.595Z,13.48
2023-05-10T22:56:56.497Z,13.48
2023-05-10T22:59:23.394Z,13.42
2023-05-10T23:01:49.784Z,13.36
2023-05-10T23:04:16.208Z,13.34
2023-05-10T23:06:42.730Z,13.43
2023-05-10T23:09:09.784Z,13.29
2023-05-10T23:11:36.417Z,13.33
2023-05-10T23:14:03.070Z,13.42
2023-05-10T23:16:29.779Z,13.38
2023-05-10T23:18:56.243Z,13.23
2023-05-10T23:21:22.733Z,13.28
2023-05-10T23:23:49.332Z,13.18
2023-05-10T23:26:16.262Z,13.06
2023-05-10T23:28:42.641Z,13.20
2023-05-10T23:31:09.009Z,13.11
2023-05-10T23:33:35.380Z,13.03
2023-05-10T23:36:01.834Z,13.03
2023-05-10T23:38:28.523Z,13.11
2023-05-10T23:40:54.947Z,13.10
2023-05-10T23:43:21.819Z,13.03
2023-05-10T23:45:58.225Z,12.99
2023-05-10T23:48:25.107Z,13.02
2023-05-10T23:50:51.756Z,13.04
2023-05-10T23:53:18.163Z,13.08
2023-05-10T23:55:45.437Z,13.15
2023-05-10T23:58:12.495Z,12.99
